sensor_id;sensor_type;location;lat;lon;timestamp;P1;durP1;ratioP1;P2;durP2;ratioP2
177;SDS011;77;48.792;9.032;2022-09-23T00:00:57;7.13;;;5.30;;
177;SDS011;77;48.792;9.032;2022-09-23T00:03:24;10.63;;;5.33;;
177;SDS011;77;48.792;9.032;2022-09-23T00:05:55;8.10;;;5.40;;
177;SDS011;77;48.792;9.032;2022-09-23T00:08:21;7.20;;;5.60;;
177;SDS011;77;48.792;9.032;2022-09-23T00:10:46;9.30;;;5.63;;
177;SDS011;77;48.792;9.032;2022-09-23T00:13:12;8.50;;;5.53;;
177;SDS011;77;48.792;9.032;2022-09-23T00:15:37;6.73;;;5.40;;
177;SDS011;77;48.792;9.032;2022-09-23T00:18:03;7.43;;;5.47;;
177;SDS011;77;48.792;9.032;2022-09-23T00:20:29;9.90;;;6.20;;
177;SDS011;77;48.792;9.032;2022-09-23T00:22:57;9.03;;;5.97;;
177;SDS011;77;48.792;9.032;2022-09-23T00:25:22;6.97;;;5.60;;
177;SDS011;77;48.792;9.032;2022-09-23T00:27:47;8.13;;;5.83;;
177;SDS011;77;48.792;9.032;2022-09-23T00:30:12;10.80;;;5.67;;
177;SDS011;77;48.792;9.032;2022-09-23T00:32:37;7.10;;;5.67;;
177;SDS011;77;48.792;9.032;2022-09-23T00:35:03;9.00;;;5.20;;
177;SDS011;77;48.792;9.032;2022-09-23T00:37:30;7.30;;;5.20;;
177;SDS011;77;48.792;9.032;2022-09-23T00:39:55;7.00;;;4.83;;
177;SDS011;77;48.792;9.032;2022-09-23T00:42:21;6.63;;;4.83;;
177;SDS011;77;48.792;9.032;2022-09-23T00:44:48;7.93;;;4.90;;
177;SDS011;77;48.792;9.032;2022-09-23T00:47:16;6.87;;;4.67;;
177;SDS011;77;48.792;9.032;2022-09-23T00:49:42;6.60;;;4.43;;
177;SDS011;77;48.792;9.032;2022-09-23T00:52:09;6.53;;;4.50;;
177;SDS011;77;48.792;9.032;2022-09-23T00:54:36;5.57;;;4.30;;
177;SDS011;77;48.792;9.032;2022-09-23T00:57:02;5.90;;;4.57;;
177;SDS011;77;48.792;9.032;2022-09-23T00:59:28;4.90;;;3.97;;
177;SDS011;77;48.792;9.032;2022-09-23T01:01:53;6.43;;;4.50;;
177;SDS011;77;48.792;9.032;2022-09-23T01:04:20;6.33;;;4.43;;
177;SDS011;77;48.792;9.032;2022-09-23T01:06:45;5.83;;;4.20;;
177;SDS011;77;48.792;9.032;2022-09-23T01:09:11;6.93;;;4.67;;
177;SDS011;77;48.792;9.032;2022-09-23T01:11:39;7.47;;;4.43;;
177;SDS011;77;48.792;9.032;2022-09-23T01:14:10;6.97;;;4.73;;
177;SDS011;77;48.792;9.032;2022-09-23T01:16:42;8.33;;;4.90;;
177;SDS011;77;48.792;9.032;2022-09-23T01:19:12;6.47;;;4.80;;
177;SDS011;77;48.792;9.032;2022-09-23T01:21:43;7.10;;;5.40;;
177;SDS011;77;48.792;9.032;2022-09-23T01:24:36;6.40;;;4.67;;
177;SDS011;77;48.792;9.032;2022-09-23T01:27:06;9.77;;;4.90;;
177;SDS011;77;48.792;9.032;2022-09-23T01:29:47;6.97;;;4.50;;
177;SDS011;77;48.792;9.032;2022-09-23T01:32:21;6.37;;;4.40;;
177;SDS011;77;48.792;9.032;2022-09-23T01:34:48;6.53;;;4.87;;
177;SDS011;77;48.792;9.032;2022-09-23T01:37:16;6.07;;;4.20;;
177;SDS011;77;48.792;9.032;2022-09-23T01:39:46;7.50;;;4.53;;
177;SDS011;77;48.792;9.032;2022-09-23T01:42:16;6.50;;;4.70;;
177;SDS011;77;48.792;9.032;2022-09-23T01:44:42;5.90;;;4.60;;
177;SDS011;77;48.792;9.032;2022-09-23T01:47:11;7.93;;;5.70;;
177;SDS011;77;48.792;9.032;2022-09-23T01:49:41;9.50;;;5.60;;
177;SDS011;77;48.792;9.032;2022-09-23T01:52:08;7.70;;;4.97;;
177;SDS011;77;48.792;9.032;2022-09-23T01:54:36;7.40;;;5.30;;
177;SDS011;77;48.792;9.032;2022-09-23T01:57:02;9.63;;;5.07;;
177;SDS011;77;48.792;9.032;2022-09-23T01:59:30;8.90;;;5.20;;
177;SDS011;77;48.792;9.032;2022-09-23T02:01:58;6.83;;;5.17;;
177;SDS011;77;48.792;9.032;2022-09-23T02:04:26;7.80;;;5.40;;
177;SDS011;77;48.792;9.032;2022-09-23T02:06:55;8.20;;;5.30;;
177;SDS011;77;48.792;9.032;2022-09-23T02:09:21;6.00;;;4.53;;
177;SDS011;77;48.792;9.032;2022-09-23T02:11:48;5.80;;;4.60;;
177;SDS011;77;48.792;9.032;2022-09-23T02:14:15;7.23;;;4.93;;
177;SDS011;77;48.792;9.032;2022-09-23T02:16:43;6.60;;;4.90;;
177;SDS011;77;48.792;9.032;2022-09-23T02:19:09;6.47;;;5.10;;
177;SDS011;77;48.792;9.032;2022-09-23T02:21:39;6.60;;;5.00;;
177;SDS011;77;48.792;9.032;2022-09-23T02:24:08;5.60;;;4.50;;
177;SDS011;77;48.792;9.032;2022-09-23T02:26:36;6.07;;;4.60;;
177;SDS011;77;48.792;9.032;2022-09-23T02:29:04;5.73;;;4.50;;
177;SDS011;77;48.792;9.032;2022-09-23T02:31:34;6.00;;;4.37;;
177;SDS011;77;48.792;9.032;2022-09-23T02:34:01;8.57;;;4.50;;
177;SDS011;77;48.792;9.032;2022-09-23T02:36:36;6.40;;;4.83;;
177;SDS011;77;48.792;9.032;2022-09-23T02:39:04;7.13;;;4.47;;
177;SDS011;77;48.792;9.032;2022-09-23T02:41:33;6.23;;;4.57;;
177;SDS011;77;48.792;9.032;2022-09-23T02:44:01;5.47;;;4.30;;
177;SDS011;77;48.792;9.032;2022-09-23T02:46:27;5.53;;;4.10;;
177;SDS011;77;48.792;9.032;2022-09-23T02:48:53;6.43;;;4.40;;
177;SDS011;77;48.792;9.032;2022-09-23T02:51:19;6.80;;;4.10;;
177;SDS011;77;48.792;9.032;2022-09-23T02:53:44;7.27;;;4.23;;
177;SDS011;77;48.792;9.032;2022-09-23T02:56:12;5.73;;;4.37;;
177;SDS011;77;48.792;9.032;2022-09-23T02:58:39;6.63;;;4.60;;
177;SDS011;77;48.792;9.032;2022-09-23T03:01:06;6.40;;;4.47;;
177;SDS011;77;48.792;9.032;2022-09-23T03:03:38;8.37;;;4.93;;
177;SDS011;77;48.792;9.032;2022-09-23T03:06:07;5.53;;;4.30;;
177;SDS011;77;48.792;9.032;2022-09-23T03:08:35;5.53;;;4.40;;
177;SDS011;77;48.792;9.032;2022-09-23T03:11:05;6.40;;;4.80;;
177;SDS011;77;48.792;9.032;2022-09-23T03:13:34;6.33;;;4.87;;
177;SDS011;77;48.792;9.032;2022-09-23T03:16:04;7.10;;;4.50;;
177;SDS011;77;48.792;9.032;2022-09-23T03:18:31;7.33;;;4.50;;
177;SDS011;77;48.792;9.032;2022-09-23T03:21:00;6.30;;;4.90;;
177;SDS011;77;48.792;9.032;2022-09-23T03:23:26;5.40;;;4.30;;
177;SDS011;77;48.792;9.032;2022-09-23T03:25:53;5.93;;;4.13;;
177;SDS011;77;48.792;9.032;2022-09-23T03:28:19;6.80;;;4.77;;
177;SDS011;77;48.792;9.032;2022-09-23T03:30:45;6.07;;;5.00;;
177;SDS011;77;48.792;9.032;2022-09-23T03:33:12;5.80;;;4.60;;
177;SDS011;77;48.792;9.032;2022-09-23T03:35:39;6.90;;;5.10;;
177;SDS011;77;48.792;9.032;2022-09-23T03:38:07;8.07;;;5.30;;
177;SDS011;77;48.792;9.032;2022-09-23T03:40:36;8.93;;;5.20;;
177;SDS011;77;48.792;9.032;2022-09-23T03:43:03;5.97;;;4.70;;
177;SDS011;77;48.792;9.032;2022-09-23T03:45:29;10.37;;;5.50;;
177;SDS011;77;48.792;9.032;2022-09-23T03:47:56;7.03;;;5.30;;
177;SDS011;77;48.792;9.032;2022-09-23T03:50:22;7.20;;;5.37;;
177;SDS011;77;48.792;9.032;2022-09-23T03:52:48;10.43;;;5.00;;
177;SDS011;77;48.792;9.032;2022-09-23T03:55:13;6.80;;;5.00;;
177;SDS011;77;48.792;9.032;2022-09-23T03:57:38;6.97;;;4.60;;
177;SDS011;77;48.792;9.032;2022-09-23T04:00:04;7.30;;;5.30;;
177;SDS011;77;48.792;9.032;2022-09-23T04:02:29;7.90;;;5.03;;
177;SDS011;77;48.792;9.032;2022-09-23T04:04:55;7.33;;;5.20;;
177;SDS011;77;48.792;9.032;2022-09-23T04:07:21;7.33;;;5.23;;
177;SDS011;77;48.792;9.032;2022-09-23T04:09:46;6.50;;;4.90;;
177;SDS011;77;48.792;9.032;2022-09-23T04:12:12;6.93;;;5.00;;
177;SDS011;77;48.792;9.032;2022-09-23T04:14:38;7.27;;;5.40;;
177;SDS011;77;48.792;9.032;2022-09-23T04:17:04;8.00;;;5.17;;
177;SDS011;77;48.792;9.032;2022-09-23T04:19:29;6.50;;;4.83;;
177;SDS011;77;48.792;9.032;2022-09-23T04:21:54;9.20;;;4.63;;
177;SDS011;77;48.792;9.032;2022-09-23T04:24:21;7.10;;;5.03;;
177;SDS011;77;48.792;9.032;2022-09-23T04:26:48;6.50;;;5.00;;
177;SDS011;77;48.792;9.032;2022-09-23T04:29:13;6.13;;;4.80;;
177;SDS011;77;48.792;9.032;2022-09-23T04:31:39;6.63;;;5.20;;
177;SDS011;77;48.792;9.032;2022-09-23T04:34:04;7.20;;;5.30;;
177;SDS011;77;48.792;9.032;2022-09-23T04:36:29;6.83;;;4.80;;
177;SDS011;77;48.792;9.032;2022-09-23T04:38:54;6.33;;;4.73;;
177;SDS011;77;48.792;9.032;2022-09-23T04:41:21;8.53;;;5.10;;
177;SDS011;77;48.792;9.032;2022-09-23T04:43:46;7.70;;;5.27;;
177;SDS011;77;48.792;9.032;2022-09-23T04:46:12;7.50;;;5.27;;
177;SDS011;77;48.792;9.032;2022-09-23T04:48:38;8.17;;;5.40;;
177;SDS011;77;48.792;9.032;2022-09-23T04:51:04;6.43;;;5.00;;
177;SDS011;77;48.792;9.032;2022-09-23T04:53:30;8.20;;;5.30;;
177;SDS011;77;48.792;9.032;2022-09-23T04:55:59;8.83;;;5.57;;
177;SDS011;77;48.792;9.032;2022-09-23T04:58:26;7.37;;;5.27;;
177;SDS011;77;48.792;9.032;2022-09-23T05:00:51;7.03;;;4.97;;
177;SDS011;77;48.792;9.032;2022-09-23T05:03:16;7.93;;;5.73;;
177;SDS011;77;48.792;9.032;2022-09-23T05:05:42;6.83;;;5.40;;
177;SDS011;77;48.792;9.032;2022-09-23T05:08:07;10.00;;;5.40;;
177;SDS011;77;48.792;9.032;2022-09-23T05:10:32;8.63;;;5.37;;
177;SDS011;77;48.792;9.032;2022-09-23T05:12:57;7.40;;;5.50;;
177;SDS011;77;48.792;9.032;2022-09-23T05:15:24;7.73;;;5.47;;
177;SDS011;77;48.792;9.032;2022-09-23T05:17:49;8.13;;;6.00;;
177;SDS011;77;48.792;9.032;2022-09-23T05:20:15;8.23;;;6.23;;
177;SDS011;77;48.792;9.032;2022-09-23T05:22:40;9.67;;;5.80;;
177;SDS011;77;48.792;9.032;2022-09-23T05:25:05;8.73;;;6.53;;
177;SDS011;77;48.792;9.032;2022-09-23T05:27:31;8.10;;;5.50;;
177;SDS011;77;48.792;9.032;2022-09-23T05:29:56;9.67;;;6.47;;
177;SDS011;77;48.792;9.032;2022-09-23T05:32:23;11.07;;;6.40;;
177;SDS011;77;48.792;9.032;2022-09-23T05:34:48;9.03;;;6.13;;
177;SDS011;77;48.792;9.032;2022-09-23T05:37:13;7.67;;;6.20;;
177;SDS011;77;48.792;9.032;2022-09-23T05:39:38;8.80;;;5.83;;
177;SDS011;77;48.792;9.032;2022-09-23T05:42:04;9.80;;;6.63;;
177;SDS011;77;48.792;9.032;2022-09-23T05:44:29;7.97;;;6.20;;
177;SDS011;77;48.792;9.032;2022-09-23T05:46:54;9.17;;;6.10;;
177;SDS011;77;48.792;9.032;2022-09-23T05:49:21;9.00;;;6.40;;
177;SDS011;77;48.792;9.032;2022-09-23T05:51:46;8.20;;;6.33;;
177;SDS011;77;48.792;9.032;2022-09-23T05:54:12;7.80;;;6.07;;
177;SDS011;77;48.792;9.032;2022-09-23T05:56:37;12.40;;;7.20;;
177;SDS011;77;48.792;9.032;2022-09-23T05:59:03;10.30;;;6.90;;
177;SDS011;77;48.792;9.032;2022-09-23T06:01:29;9.90;;;7.03;;
177;SDS011;77;48.792;9.032;2022-09-23T06:03:55;10.80;;;6.83;;
177;SDS011;77;48.792;9.032;2022-09-23T06:06:25;10.13;;;6.70;;
177;SDS011;77;48.792;9.032;2022-09-23T06:08:51;9.53;;;6.90;;
177;SDS011;77;48.792;9.032;2022-09-23T06:11:16;10.20;;;6.50;;
177;SDS011;77;48.792;9.032;2022-09-23T06:13:44;10.60;;;6.90;;
177;SDS011;77;48.792;9.032;2022-09-23T06:16:10;11.20;;;6.90;;
177;SDS011;77;48.792;9.032;2022-09-23T06:18:37;8.97;;;6.70;;
177;SDS011;77;48.792;9.032;2022-09-23T06:21:03;9.63;;;6.87;;
177;SDS011;77;48.792;9.032;2022-09-23T06:23:29;8.80;;;6.33;;
177;SDS011;77;48.792;9.032;2022-09-23T06:25:58;9.63;;;6.60;;
177;SDS011;77;48.792;9.032;2022-09-23T06:28:23;8.63;;;6.47;;
177;SDS011;77;48.792;9.032;2022-09-23T06:30:49;8.77;;;6.33;;
177;SDS011;77;48.792;9.032;2022-09-23T06:33:14;9.70;;;7.13;;
177;SDS011;77;48.792;9.032;2022-09-23T06:35:39;8.90;;;6.70;;
177;SDS011;77;48.792;9.032;2022-09-23T06:38:05;9.43;;;6.97;;
177;SDS011;77;48.792;9.032;2022-09-23T06:40:31;9.53;;;6.73;;
177;SDS011;77;48.792;9.032;2022-09-23T06:42:57;10.70;;;7.20;;
177;SDS011;77;48.792;9.032;2022-09-23T06:45:22;10.20;;;6.30;;
177;SDS011;77;48.792;9.032;2022-09-23T06:47:48;9.00;;;6.37;;
177;SDS011;77;48.792;9.032;2022-09-23T06:50:17;8.30;;;6.40;;
177;SDS011;77;48.792;9.032;2022-09-23T06:52:48;9.50;;;6.50;;
177;SDS011;77;48.792;9.032;2022-09-23T06:55:14;8.70;;;6.40;;
177;SDS011;77;48.792;9.032;2022-09-23T06:57:40;9.13;;;6.27;;
177;SDS011;77;48.792;9.032;2022-09-23T07:00:06;8.80;;;6.17;;
177;SDS011;77;48.792;9.032;2022-09-23T07:02:32;8.73;;;6.07;;
177;SDS011;77;48.792;9.032;2022-09-23T07:04:57;7.40;;;6.00;;
177;SDS011;77;48.792;9.032;2022-09-23T07:07:22;9.40;;;5.73;;
177;SDS011;77;48.792;9.032;2022-09-23T07:09:48;8.67;;;5.83;;
177;SDS011;77;48.792;9.032;2022-09-23T07:12:15;7.67;;;6.13;;
177;SDS011;77;48.792;9.032;2022-09-23T07:14:42;8.93;;;5.70;;
177;SDS011;77;48.792;9.032;2022-09-23T07:17:07;8.80;;;6.13;;
177;SDS011;77;48.792;9.032;2022-09-23T07:19:33;7.33;;;5.37;;
177;SDS011;77;48.792;9.032;2022-09-23T07:22:00;7.50;;;5.70;;
177;SDS011;77;48.792;9.032;2022-09-23T07:24:25;7.30;;;5.73;;
177;SDS011;77;48.792;9.032;2022-09-23T07:26:51;8.40;;;5.73;;
177;SDS011;77;48.792;9.032;2022-09-23T07:29:16;8.30;;;5.60;;
177;SDS011;77;48.792;9.032;2022-09-23T07:31:43;8.00;;;5.10;;
177;SDS011;77;48.792;9.032;2022-09-23T07:34:08;9.27;;;5.57;;
177;SDS011;77;48.792;9.032;2022-09-23T07:36:34;7.30;;;5.60;;
177;SDS011;77;48.792;9.032;2022-09-23T07:38:59;8.00;;;5.53;;
177;SDS011;77;48.792;9.032;2022-09-23T07:41:24;8.73;;;5.27;;
177;SDS011;77;48.792;9.032;2022-09-23T07:43:53;7.20;;;5.10;;
177;SDS011;77;48.792;9.032;2022-09-23T07:46:18;7.73;;;5.20;;
177;SDS011;77;48.792;9.032;2022-09-23T07:48:45;7.73;;;5.20;;
177;SDS011;77;48.792;9.032;2022-09-23T07:51:12;6.20;;;4.90;;
177;SDS011;77;48.792;9.032;2022-09-23T07:53:37;9.40;;;5.00;;
177;SDS011;77;48.792;9.032;2022-09-23T07:56:03;7.60;;;4.50;;
177;SDS011;77;48.792;9.032;2022-09-23T07:58:28;6.70;;;4.80;;
177;SDS011;77;48.792;9.032;2022-09-23T08:00:54;6.63;;;4.80;;
177;SDS011;77;48.792;9.032;2022-09-23T08:03:19;9.33;;;4.53;;
177;SDS011;77;48.792;9.032;2022-09-23T08:05:49;6.50;;;4.10;;
177;SDS011;77;48.792;9.032;2022-09-23T08:08:14;6.20;;;4.40;;
177;SDS011;77;48.792;9.032;2022-09-23T08:10:39;7.60;;;4.70;;
177;SDS011;77;48.792;9.032;2022-09-23T08:13:05;6.07;;;4.40;;
177;SDS011;77;48.792;9.032;2022-09-23T08:15:30;8.60;;;4.87;;
177;SDS011;77;48.792;9.032;2022-09-23T08:17:56;9.27;;;5.10;;
177;SDS011;77;48.792;9.032;2022-09-23T08:20:21;8.87;;;4.60;;
177;SDS011;77;48.792;9.032;2022-09-23T08:22:50;7.93;;;5.03;;
177;SDS011;77;48.792;9.032;2022-09-23T08:25:15;7.30;;;5.30;;
177;SDS011;77;48.792;9.032;2022-09-23T08:27:41;8.30;;;4.93;;
177;SDS011;77;48.792;9.032;2022-09-23T08:30:07;7.03;;;4.40;;
177;SDS011;77;48.792;9.032;2022-09-23T08:32:32;8.03;;;4.97;;
177;SDS011;77;48.792;9.032;2022-09-23T08:34:57;9.63;;;5.33;;
177;SDS011;77;48.792;9.032;2022-09-23T08:37:23;6.20;;;4.90;;
177;SDS011;77;48.792;9.032;2022-09-23T08:39:49;8.00;;;4.73;;
177;SDS011;77;48.792;9.032;2022-09-23T08:42:19;7.40;;;5.33;;
177;SDS011;77;48.792;9.032;2022-09-23T08:44:47;10.43;;;5.30;;
177;SDS011;77;48.792;9.032;2022-09-23T08:47:15;7.10;;;4.60;;
177;SDS011;77;48.792;9.032;2022-09-23T08:49:44;10.20;;;4.93;;
177;SDS011;77;48.792;9.032;2022-09-23T08:52:12;6.97;;;5.00;;
177;SDS011;77;48.792;9.032;2022-09-23T08:54:39;6.70;;;4.80;;
177;SDS011;77;48.792;9.032;2022-09-23T08:57:06;11.43;;;4.87;;
177;SDS011;77;48.792;9.032;2022-09-23T08:59:34;6.67;;;4.50;;
177;SDS011;77;48.792;9.032;2022-09-23T09:02:04;5.67;;;4.50;;
177;SDS011;77;48.792;9.032;2022-09-23T09:04:34;7.17;;;4.83;;
177;SDS011;77;48.792;9.032;2022-09-23T09:07:03;9.03;;;4.70;;
177;SDS011;77;48.792;9.032;2022-09-23T09:09:36;6.40;;;4.60;;
177;SDS011;77;48.792;9.032;2022-09-23T09:12:02;6.80;;;4.90;;
177;SDS011;77;48.792;9.032;2022-09-23T09:14:33;6.60;;;4.20;;
177;SDS011;77;48.792;9.032;2022-09-23T09:17:00;8.17;;;4.63;;
177;SDS011;77;48.792;9.032;2022-09-23T09:19:31;7.40;;;4.40;;
177;SDS011;77;48.792;9.032;2022-09-23T09:22:00;6.50;;;4.43;;
177;SDS011;77;48.792;9.032;2022-09-23T09:24:28;8.70;;;4.33;;
177;SDS011;77;48.792;9.032;2022-09-23T09:26:56;8.20;;;4.23;;
177;SDS011;77;48.792;9.032;2022-09-23T09:29:21;5.90;;;4.50;;
177;SDS011;77;48.792;9.032;2022-09-23T09:31:49;7.33;;;4.67;;
177;SDS011;77;48.792;9.032;2022-09-23T09:34:19;7.00;;;4.30;;
177;SDS011;77;48.792;9.032;2022-09-23T09:36:48;8.50;;;4.57;;
177;SDS011;77;48.792;9.032;2022-09-23T09:39:15;5.67;;;4.10;;
177;SDS011;77;48.792;9.032;2022-09-23T09:41:40;8.20;;;4.20;;
177;SDS011;77;48.792;9.032;2022-09-23T09:44:20;6.50;;;4.40;;
177;SDS011;77;48.792;9.032;2022-09-23T09:46:53;5.50;;;4.00;;
177;SDS011;77;48.792;9.032;2022-09-23T09:49:22;6.80;;;4.40;;
177;SDS011;77;48.792;9.032;2022-09-23T09:51:50;8.60;;;4.17;;
177;SDS011;77;48.792;9.032;2022-09-23T09:54:34;5.13;;;4.00;;
177;SDS011;77;48.792;9.032;2022-09-23T09:57:01;6.10;;;4.27;;
177;SDS011;77;48.792;9.032;2022-09-23T09:59:28;5.60;;;4.43;;
177;SDS011;77;48.792;9.032;2022-09-23T10:04:35;5.50;;;4.00;;
177;SDS011;77;48.792;9.032;2022-09-23T10:07:04;5.33;;;4.03;;
177;SDS011;77;48.792;9.032;2022-09-23T10:09:30;6.50;;;4.40;;
177;SDS011;77;48.792;9.032;2022-09-23T10:12:09;5.33;;;4.27;;
177;SDS011;77;48.792;9.032;2022-09-23T10:14:35;6.23;;;4.40;;
177;SDS011;77;48.792;9.032;2022-09-23T10:17:01;6.17;;;4.20;;
177;SDS011;77;48.792;9.032;2022-09-23T10:19:27;6.10;;;4.17;;
177;SDS011;77;48.792;9.032;2022-09-23T10:21:55;6.20;;;4.40;;
177;SDS011;77;48.792;9.032;2022-09-23T10:24:23;6.60;;;4.20;;
177;SDS011;77;48.792;9.032;2022-09-23T10:26:54;7.13;;;3.90;;
177;SDS011;77;48.792;9.032;2022-09-23T10:29:21;6.73;;;4.30;;
177;SDS011;77;48.792;9.032;2022-09-23T10:31:47;8.40;;;3.83;;
177;SDS011;77;48.792;9.032;2022-09-23T10:34:19;5.47;;;4.30;;
177;SDS011;77;48.792;9.032;2022-09-23T10:36:48;5.90;;;4.00;;
177;SDS011;77;48.792;9.032;2022-09-23T10:39:19;7.23;;;4.60;;
177;SDS011;77;48.792;9.032;2022-09-23T10:41:47;7.67;;;4.50;;
177;SDS011;77;48.792;9.032;2022-09-23T10:44:20;8.03;;;4.67;;
177;SDS011;77;48.792;9.032;2022-09-23T10:46:51;6.93;;;4.23;;
177;SDS011;77;48.792;9.032;2022-09-23T10:49:33;5.30;;;4.40;;
177;SDS011;77;48.792;9.032;2022-09-23T10:52:10;7.00;;;4.30;;
177;SDS011;77;48.792;9.032;2022-09-23T10:54:41;5.50;;;4.20;;
177;SDS011;77;48.792;9.032;2022-09-23T10:57:12;6.80;;;4.20;;
177;SDS011;77;48.792;9.032;2022-09-23T10:59:45;4.57;;;3.90;;
177;SDS011;77;48.792;9.032;2022-09-23T11:02:17;7.17;;;4.20;;
177;SDS011;77;48.792;9.032;2022-09-23T11:07:35;7.10;;;4.30;;
177;SDS011;77;48.792;9.032;2022-09-23T11:12:48;7.93;;;4.50;;
177;SDS011;77;48.792;9.032;2022-09-23T11:15:21;6.10;;;4.50;;
177;SDS011;77;48.792;9.032;2022-09-23T11:20:35;6.90;;;4.20;;
177;SDS011;77;48.792;9.032;2022-09-23T11:23:16;5.70;;;4.80;;
177;SDS011;77;48.792;9.032;2022-09-23T11:25:46;9.53;;;4.70;;
177;SDS011;77;48.792;9.032;2022-09-23T11:28:23;6.80;;;4.80;;
177;SDS011;77;48.792;9.032;2022-09-23T11:30:53;6.80;;;5.00;;
177;SDS011;77;48.792;9.032;2022-09-23T11:33:25;5.80;;;4.80;;
177;SDS011;77;48.792;9.032;2022-09-23T11:35:54;5.83;;;4.90;;
177;SDS011;77;48.792;9.032;2022-09-23T11:38:22;6.03;;;4.87;;
177;SDS011;77;48.792;9.032;2022-09-23T11:40:50;6.07;;;4.80;;
177;SDS011;77;48.792;9.032;2022-09-23T11:43:17;12.20;;;4.50;;
177;SDS011;77;48.792;9.032;2022-09-23T11:45:45;9.30;;;5.00;;
177;SDS011;77;48.792;9.032;2022-09-23T11:48:14;6.50;;;4.63;;
177;SDS011;77;48.792;9.032;2022-09-23T11:50:41;6.40;;;4.63;;
177;SDS011;77;48.792;9.032;2022-09-23T11:53:11;7.17;;;4.87;;
177;SDS011;77;48.792;9.032;2022-09-23T11:55:41;8.90;;;5.73;;
177;SDS011;77;48.792;9.032;2022-09-23T11:58:09;7.87;;;4.87;;
177;SDS011;77;48.792;9.032;2022-09-23T12:00:36;9.33;;;4.60;;
177;SDS011;77;48.792;9.032;2022-09-23T12:03:07;10.33;;;5.07;;
177;SDS011;77;48.792;9.032;2022-09-23T12:05:36;7.67;;;5.27;;
177;SDS011;77;48.792;9.032;2022-09-23T12:08:04;7.00;;;4.67;;
177;SDS011;77;48.792;9.032;2022-09-23T12:10:35;9.53;;;5.00;;
177;SDS011;77;48.792;9.032;2022-09-23T12:13:09;6.20;;;4.37;;
177;SDS011;77;48.792;9.032;2022-09-23T12:15:39;8.17;;;4.90;;
177;SDS011;77;48.792;9.032;2022-09-23T12:18:14;7.80;;;4.60;;
177;SDS011;77;48.792;9.032;2022-09-23T12:20:52;6.97;;;4.80;;
177;SDS011;77;48.792;9.032;2022-09-23T12:23:25;7.97;;;4.87;;
177;SDS011;77;48.792;9.032;2022-09-23T12:25:53;10.57;;;5.10;;
177;SDS011;77;48.792;9.032;2022-09-23T12:28:23;7.90;;;5.10;;
177;SDS011;77;48.792;9.032;2022-09-23T12:30:49;9.30;;;5.10;;
177;SDS011;77;48.792;9.032;2022-09-23T12:33:19;9.13;;;5.23;;
177;SDS011;77;48.792;9.032;2022-09-23T12:35:45;8.50;;;5.17;;
177;SDS011;77;48.792;9.032;2022-09-23T12:38:11;7.73;;;4.87;;
177;SDS011;77;48.792;9.032;2022-09-23T12:40:37;9.13;;;5.50;;
177;SDS011;77;48.792;9.032;2022-09-23T12:43:02;14.10;;;6.10;;
177;SDS011;77;48.792;9.032;2022-09-23T12:45:32;9.17;;;6.33;;
177;SDS011;77;48.792;9.032;2022-09-23T12:47:58;8.60;;;6.60;;
177;SDS011;77;48.792;9.032;2022-09-23T12:55:53;11.60;;;5.73;;
177;SDS011;77;48.792;9.032;2022-09-23T13:01:08;7.37;;;5.43;;
177;SDS011;77;48.792;9.032;2022-09-23T13:03:40;12.67;;;5.70;;
177;SDS011;77;48.792;9.032;2022-09-23T13:06:06;11.57;;;5.90;;
177;SDS011;77;48.792;9.032;2022-09-23T13:08:34;7.67;;;5.07;;
177;SDS011;77;48.792;9.032;2022-09-23T13:11:02;8.70;;;5.27;;
177;SDS011;77;48.792;9.032;2022-09-23T13:13:28;6.80;;;5.13;;
177;SDS011;77;48.792;9.032;2022-09-23T13:16:08;10.73;;;5.73;;
177;SDS011;77;48.792;9.032;2022-09-23T13:24:16;7.63;;;5.67;;
177;SDS011;77;48.792;9.032;2022-09-23T13:26:44;9.63;;;5.47;;
177;SDS011;77;48.792;9.032;2022-09-23T13:29:11;10.30;;;5.23;;
177;SDS011;77;48.792;9.032;2022-09-23T13:31:38;6.57;;;5.30;;
177;SDS011;77;48.792;9.032;2022-09-23T13:34:06;10.53;;;6.20;;
177;SDS011;77;48.792;9.032;2022-09-23T13:36:41;7.40;;;5.70;;
177;SDS011;77;48.792;9.032;2022-09-23T13:39:13;12.00;;;5.90;;
177;SDS011;77;48.792;9.032;2022-09-23T13:41:38;10.97;;;5.50;;
177;SDS011;77;48.792;9.032;2022-09-23T13:44:08;9.63;;;5.27;;
177;SDS011;77;48.792;9.032;2022-09-23T13:46:39;13.33;;;5.80;;
177;SDS011;77;48.792;9.032;2022-09-23T13:49:04;13.77;;;6.03;;
177;SDS011;77;48.792;9.032;2022-09-23T13:51:31;9.83;;;5.50;;
177;SDS011;77;48.792;9.032;2022-09-23T13:53:57;8.13;;;5.30;;
177;SDS011;77;48.792;9.032;2022-09-23T13:56:24;7.17;;;5.10;;
177;SDS011;77;48.792;9.032;2022-09-23T13:58:50;7.80;;;5.77;;
177;SDS011;77;48.792;9.032;2022-09-23T14:01:21;11.03;;;5.77;;
177;SDS011;77;48.792;9.032;2022-09-23T14:03:47;10.23;;;5.50;;
177;SDS011;77;48.792;9.032;2022-09-23T14:06:13;9.00;;;5.70;;
177;SDS011;77;48.792;9.032;2022-09-23T14:08:40;9.40;;;5.57;;
177;SDS011;77;48.792;9.032;2022-09-23T14:11:08;8.30;;;4.83;;
177;SDS011;77;48.792;9.032;2022-09-23T14:13:40;12.13;;;5.37;;
177;SDS011;77;48.792;9.032;2022-09-23T14:16:07;7.70;;;5.10;;
177;SDS011;77;48.792;9.032;2022-09-23T14:18:35;10.17;;;4.67;;
177;SDS011;77;48.792;9.032;2022-09-23T14:21:01;8.10;;;5.33;;
177;SDS011;77;48.792;9.032;2022-09-23T14:23:27;6.30;;;5.30;;
177;SDS011;77;48.792;9.032;2022-09-23T14:25:52;8.90;;;5.57;;
177;SDS011;77;48.792;9.032;2022-09-23T14:28:18;6.50;;;5.40;;
177;SDS011;77;48.792;9.032;2022-09-23T14:30:44;9.07;;;5.47;;
177;SDS011;77;48.792;9.032;2022-09-23T14:33:13;12.10;;;5.10;;
177;SDS011;77;48.792;9.032;2022-09-23T14:35:40;8.23;;;5.00;;
177;SDS011;77;48.792;9.032;2022-09-23T14:38:07;9.60;;;5.93;;
177;SDS011;77;48.792;9.032;2022-09-23T14:40:33;8.50;;;5.40;;
177;SDS011;77;48.792;9.032;2022-09-23T14:43:01;6.37;;;5.33;;
177;SDS011;77;48.792;9.032;2022-09-23T14:45:29;9.40;;;5.90;;
177;SDS011;77;48.792;9.032;2022-09-23T14:47:56;7.70;;;5.13;;
177;SDS011;77;48.792;9.032;2022-09-23T14:50:22;6.20;;;5.13;;
177;SDS011;77;48.792;9.032;2022-09-23T14:52:50;7.30;;;5.40;;
177;SDS011;77;48.792;9.032;2022-09-23T14:55:16;8.17;;;5.73;;
177;SDS011;77;48.792;9.032;2022-09-23T14:57:42;7.80;;;5.47;;
177;SDS011;77;48.792;9.032;2022-09-23T15:00:11;7.17;;;5.70;;
177;SDS011;77;48.792;9.032;2022-09-23T15:02:39;8.10;;;5.17;;
177;SDS011;77;48.792;9.032;2022-09-23T15:05:16;9.27;;;5.90;;
177;SDS011;77;48.792;9.032;2022-09-23T15:07:46;6.37;;;5.23;;
177;SDS011;77;48.792;9.032;2022-09-23T15:10:15;7.77;;;5.30;;
177;SDS011;77;48.792;9.032;2022-09-23T15:12:42;9.00;;;5.50;;
177;SDS011;77;48.792;9.032;2022-09-23T15:15:09;6.40;;;5.20;;
177;SDS011;77;48.792;9.032;2022-09-23T15:17:36;8.03;;;5.77;;
177;SDS011;77;48.792;9.032;2022-09-23T15:20:02;7.30;;;5.17;;
177;SDS011;77;48.792;9.032;2022-09-23T15:22:28;10.97;;;5.20;;
177;SDS011;77;48.792;9.032;2022-09-23T15:24:54;9.37;;;5.60;;
177;SDS011;77;48.792;9.032;2022-09-23T15:27:33;7.20;;;5.37;;
177;SDS011;77;48.792;9.032;2022-09-23T15:30:13;9.00;;;5.13;;
177;SDS011;77;48.792;9.032;2022-09-23T15:32:39;6.80;;;4.97;;
177;SDS011;77;48.792;9.032;2022-09-23T15:35:05;6.63;;;4.90;;
177;SDS011;77;48.792;9.032;2022-09-23T15:37:30;8.37;;;5.63;;
177;SDS011;77;48.792;9.032;2022-09-23T15:39:55;7.13;;;5.30;;
177;SDS011;77;48.792;9.032;2022-09-23T15:42:20;8.00;;;5.93;;
177;SDS011;77;48.792;9.032;2022-09-23T15:44:47;8.07;;;5.23;;
177;SDS011;77;48.792;9.032;2022-09-23T15:47:13;8.63;;;5.87;;
177;SDS011;77;48.792;9.032;2022-09-23T15:49:39;10.83;;;5.67;;
177;SDS011;77;48.792;9.032;2022-09-23T15:52:05;7.93;;;5.40;;
177;SDS011;77;48.792;9.032;2022-09-23T15:54:31;10.03;;;5.33;;
177;SDS011;77;48.792;9.032;2022-09-23T15:56:56;9.33;;;5.50;;
177;SDS011;77;48.792;9.032;2022-09-23T15:59:21;8.00;;;5.47;;
177;SDS011;77;48.792;9.032;2022-09-23T16:01:49;8.07;;;5.07;;
177;SDS011;77;48.792;9.032;2022-09-23T16:04:14;10.57;;;5.70;;
177;SDS011;77;48.792;9.032;2022-09-23T16:06:40;9.73;;;5.73;;
177;SDS011;77;48.792;9.032;2022-09-23T16:09:05;10.40;;;5.70;;
177;SDS011;77;48.792;9.032;2022-09-23T16:11:30;10.13;;;5.10;;
177;SDS011;77;48.792;9.032;2022-09-23T16:13:56;10.13;;;5.63;;
177;SDS011;77;48.792;9.032;2022-09-23T16:16:21;8.00;;;5.67;;
177;SDS011;77;48.792;9.032;2022-09-23T16:18:48;10.67;;;5.37;;
177;SDS011;77;48.792;9.032;2022-09-23T16:21:13;9.47;;;5.43;;
177;SDS011;77;48.792;9.032;2022-09-23T16:23:40;8.53;;;5.73;;
177;SDS011;77;48.792;9.032;2022-09-23T16:26:06;10.13;;;5.97;;